Decoded Metar for CYPH (INUKJUAK in QC, CANADA) (IATA:YPH) | Meteo·Mobile Aviation Weather
aviador You're here:

CYPH Decoded Metar

INUKJUAK in QC, CANADA
Report Time2019-04-23 16:00:00
UTC Time2019-04-23 16:31:25
Flight Rules vfr VFR
Wind200° at 07 kt
W.Decomp.*RWY 25: 6.0 kt HW 3.6 kt LCW
Visibility9999 m
Phenomena:Light Snow
Clouds:Overcast 032 Hf
Expected CloudBase > 400 ft AGL from Temp-Dew spread
Ceiling3,200 ft
Temp-10°C (ISA -25)
Dew Point-11°C (92% RH)
AAT-15.7°C
QNH1028 hPa
Density Alt-3,593 ft
Elevation10 ft
Report Wrong Elevation
Raw Report
CYPH 231600Z AUTO 20007KT 9SM -SN OVC032 M10/M11 A3036 RMK
SLP284=

Extra information for CYPH:More info

Metar Taf Metar & Taf Last 4 Metars F.Rules Stats Wind Profile Meteogram Temp Stats Airport Information Weather charts Add Link Nearby VenuesMetar ALERT Operation Metar Decoded Social comments